Time;durP1;ratioP1;P1;durP2;ratioP2;P2;SDS_P1;SDS_P2;PMS_P1;PMS_P2;Temp;Humidity;BMP_temperature;BMP_pressure;BME280_temperature;BME280_humidity;BME280_pressure;Samples;Min_cycle;Max_cycle;Signal;HPM_P1;HPM_P2
2020/12/18 00:01:38;;;;;;;37.57;23.27;;;;;;;;;;5017000;28;20268;-77
2020/12/18 00:04:04;;;;;;;40.40;23.43;;;;;;;;;;5017647;28;20984;-77
2020/12/18 00:06:34;;;;;;;40.23;21.93;;;;;;;;;;5008583;28;20277;-77
2020/12/18 00:09:00;;;;;;;37.40;22.80;;;;;;;;;;5012193;28;20285;-77
2020/12/18 00:11:27;;;;;;;38.50;22.93;;;;;;;;;;5011907;28;20299;-77
2020/12/18 00:13:54;;;;;;;42.13;24.07;;;;;;;;;;5008367;28;20744;-77
2020/12/18 00:16:20;;;;;;;49.73;26.20;;;;;;;;;;5018213;28;20300;-77
2020/12/18 00:18:47;;;;;;;48.93;25.57;;;;;;;;;;5011817;28;20273;-77
2020/12/18 00:21:17;;;;;;;58.30;28.03;;;;;;;;;;5023458;28;20307;-77
2020/12/18 00:23:43;;;;;;;54.93;27.63;;;;;;;;;;5017791;28;20288;-77
2020/12/18 00:26:09;;;;;;;55.13;28.93;;;;;;;;;;5019662;28;20280;-77
2020/12/18 00:28:35;;;;;;;63.13;30.40;;;;;;;;;;5015584;28;20289;-77
2020/12/18 00:31:01;;;;;;;56.43;28.07;;;;;;;;;;5016239;28;20255;-77
2020/12/18 00:33:28;;;;;;;54.83;28.37;;;;;;;;;;5014651;28;20269;-77
2020/12/18 00:35:54;;;;;;;58.23;30.77;;;;;;;;;;5031925;28;20278;-77
2020/12/18 00:38:20;;;;;;;63.60;28.57;;;;;;;;;;5032912;28;20311;-77
2020/12/18 00:40:46;;;;;;;53.27;26.73;;;;;;;;;;4994897;28;20336;-77
2020/12/18 00:43:13;;;;;;;62.37;29.23;;;;;;;;;;4999894;28;20794;-77
2020/12/18 00:45:39;;;;;;;55.23;27.40;;;;;;;;;;5015041;28;20272;-77
2020/12/18 00:48:05;;;;;;;47.50;25.97;;;;;;;;;;5008956;28;20289;-77
2020/12/18 00:50:33;;;;;;;47.10;25.37;;;;;;;;;;5005011;28;20265;-77
2020/12/18 00:52:59;;;;;;;50.93;26.47;;;;;;;;;;5013889;28;20268;-77
2020/12/18 00:55:25;;;;;;;52.00;26.13;;;;;;;;;;5013034;28;20258;-77
2020/12/18 00:57:51;;;;;;;44.30;25.03;;;;;;;;;;5007381;28;20331;-76
2020/12/18 01:00:17;;;;;;;47.30;25.73;;;;;;;;;;5012486;28;20272;-77
2020/12/18 01:02:44;;;;;;;55.57;26.97;;;;;;;;;;5011923;28;20261;-77
2020/12/18 01:05:10;;;;;;;48.13;24.50;;;;;;;;;;5013877;28;20277;-77
2020/12/18 01:07:37;;;;;;;48.93;25.37;;;;;;;;;;5011807;28;20308;-77
2020/12/18 01:10:03;;;;;;;50.47;26.30;;;;;;;;;;5012803;28;20284;-77
2020/12/18 01:12:29;;;;;;;59.67;27.27;;;;;;;;;;5011408;28;20269;-76
2020/12/18 01:14:55;;;;;;;57.90;27.20;;;;;;;;;;5013122;28;20277;-77
2020/12/18 01:17:21;;;;;;;50.27;24.50;;;;;;;;;;5010986;28;20491;-77
2020/12/18 01:19:47;;;;;;;62.07;28.13;;;;;;;;;;5011144;28;21193;-77
2020/12/18 01:22:13;;;;;;;66.37;28.00;;;;;;;;;;5007337;28;20273;-76
2020/12/18 01:24:40;;;;;;;65.90;29.50;;;;;;;;;;4991806;28;20289;-77
2020/12/18 01:27:06;;;;;;;59.13;26.80;;;;;;;;;;5002806;28;20269;-77
2020/12/18 01:29:32;;;;;;;57.07;27.73;;;;;;;;;;5002821;28;20289;-77
2020/12/18 01:31:58;;;;;;;61.23;27.60;;;;;;;;;;5012783;28;20261;-77
2020/12/18 01:34:24;;;;;;;70.10;29.27;;;;;;;;;;5010640;28;20261;-77
2020/12/18 01:36:50;;;;;;;70.20;29.00;;;;;;;;;;5011383;28;20261;-77
2020/12/18 01:39:16;;;;;;;68.97;30.10;;;;;;;;;;5008329;28;20300;-77
2020/12/18 01:41:42;;;;;;;64.07;29.47;;;;;;;;;;5004463;28;20268;-77
2020/12/18 01:44:08;;;;;;;67.10;30.43;;;;;;;;;;5013009;28;21337;-77
2020/12/18 01:46:36;;;;;;;68.27;28.50;;;;;;;;;;5009635;28;20277;-77
2020/12/18 01:49:02;;;;;;;64.47;29.00;;;;;;;;;;4990881;28;20289;-77
2020/12/18 01:51:28;;;;;;;70.40;29.67;;;;;;;;;;5001214;28;20269;-77
2020/12/18 01:53:54;;;;;;;77.03;31.87;;;;;;;;;;5010870;28;20310;-77
2020/12/18 01:56:22;;;;;;;66.67;29.00;;;;;;;;;;5005594;28;20299;-77
2020/12/18 01:58:49;;;;;;;82.13;31.27;;;;;;;;;;5009544;28;20277;-77
2020/12/18 02:01:15;;;;;;;59.33;28.87;;;;;;;;;;5010431;28;20312;-77
2020/12/18 02:03:41;;;;;;;90.67;33.10;;;;;;;;;;5009788;28;20276;-77
2020/12/18 02:06:10;;;;;;;87.97;33.70;;;;;;;;;;4992462;28;20269;-77
2020/12/18 02:08:40;;;;;;;66.73;29.80;;;;;;;;;;4990308;28;20420;-78
2020/12/18 02:11:06;;;;;;;66.17;31.23;;;;;;;;;;4996127;28;20633;-77
2020/12/18 02:13:32;;;;;;;65.10;28.93;;;;;;;;;;4993269;28;20308;-77
2020/12/18 02:15:58;;;;;;;63.20;28.87;;;;;;;;;;5009418;28;20273;-77
2020/12/18 02:18:24;;;;;;;57.13;27.87;;;;;;;;;;5010799;28;20305;-77
2020/12/18 02:20:51;;;;;;;59.53;27.67;;;;;;;;;;5011930;28;21102;-77
2020/12/18 02:23:17;;;;;;;53.47;26.83;;;;;;;;;;5006636;28;20280;-76
2020/12/18 02:25:44;;;;;;;51.13;24.73;;;;;;;;;;5004274;28;20363;-76
2020/12/18 02:28:13;;;;;;;49.53;23.40;;;;;;;;;;5004110;28;20285;-76
2020/12/18 02:30:40;;;;;;;46.03;23.50;;;;;;;;;;5005028;28;20312;-76
2020/12/18 02:33:06;;;;;;;40.70;22.63;;;;;;;;;;5004479;28;20269;-76
2020/12/18 02:35:33;;;;;;;41.30;21.67;;;;;;;;;;5005165;28;20261;-76
2020/12/18 02:37:59;;;;;;;38.40;19.43;;;;;;;;;;5004494;28;20315;-76
2020/12/18 02:40:26;;;;;;;32.60;17.33;;;;;;;;;;5001525;28;20335;-76
2020/12/18 02:42:52;;;;;;;29.03;17.03;;;;;;;;;;4998463;28;20281;-76
2020/12/18 02:45:19;;;;;;;27.70;16.80;;;;;;;;;;5006481;28;20257;-76
2020/12/18 02:47:45;;;;;;;33.40;17.47;;;;;;;;;;5007621;28;20268;-76
2020/12/18 02:50:11;;;;;;;30.77;18.07;;;;;;;;;;5002182;28;20368;-75
2020/12/18 02:52:38;;;;;;;29.83;16.80;;;;;;;;;;5020104;28;20636;-78
2020/12/18 02:55:04;;;;;;;23.90;14.67;;;;;;;;;;5013162;28;20359;-75
2020/12/18 02:57:30;;;;;;;23.97;14.80;;;;;;;;;;5007441;28;20801;-76
2020/12/18 02:59:56;;;;;;;27.60;15.50;;;;;;;;;;5009068;28;20269;-76
2020/12/18 03:02:22;;;;;;;28.80;15.00;;;;;;;;;;5011089;28;20787;-76
2020/12/18 03:04:48;;;;;;;26.40;16.53;;;;;;;;;;5008096;28;20278;-76
2020/12/18 03:07:15;;;;;;;25.60;16.03;;;;;;;;;;5007822;28;20686;-76
2020/12/18 03:09:41;;;;;;;24.03;14.53;;;;;;;;;;5010664;28;20315;-76
2020/12/18 03:12:07;;;;;;;25.10;15.03;;;;;;;;;;5012524;28;20748;-77
2020/12/18 03:14:33;;;;;;;25.27;14.73;;;;;;;;;;5004177;28;20284;-76
2020/12/18 03:16:59;;;;;;;25.77;15.17;;;;;;;;;;5010606;28;20253;-76
2020/12/18 03:19:25;;;;;;;26.57;16.43;;;;;;;;;;5006806;28;20380;-76
2020/12/18 03:21:51;;;;;;;24.93;16.43;;;;;;;;;;4991887;28;20284;-76
2020/12/18 03:24:18;;;;;;;24.03;15.03;;;;;;;;;;5010825;28;21053;-76
2020/12/18 03:26:45;;;;;;;24.70;15.13;;;;;;;;;;5010727;28;20271;-76
2020/12/18 03:29:11;;;;;;;22.67;14.53;;;;;;;;;;4991367;28;20792;-76
2020/12/18 03:31:37;;;;;;;23.13;15.23;;;;;;;;;;4996933;28;20272;-76
2020/12/18 03:34:03;;;;;;;23.60;15.43;;;;;;;;;;5011270;28;20344;-78
2020/12/18 03:36:29;;;;;;;22.73;14.90;;;;;;;;;;5010880;28;20643;-76
2020/12/18 03:38:55;;;;;;;23.73;14.70;;;;;;;;;;5009122;28;20288;-76
2020/12/18 03:41:22;;;;;;;22.10;14.17;;;;;;;;;;5012688;28;20272;-76
2020/12/18 03:43:48;;;;;;;22.20;14.23;;;;;;;;;;5023281;28;20359;-76
2020/12/18 03:46:15;;;;;;;22.37;13.30;;;;;;;;;;5012678;28;20305;-75
2020/12/18 03:48:41;;;;;;;22.10;13.87;;;;;;;;;;5016961;28;20292;-76
2020/12/18 03:51:07;;;;;;;24.70;13.70;;;;;;;;;;5015776;28;20300;-76
2020/12/18 03:53:33;;;;;;;22.30;12.17;;;;;;;;;;5026985;28;20264;-76
2020/12/18 03:55:59;;;;;;;21.40;13.80;;;;;;;;;;5013518;28;20897;-76
2020/12/18 03:58:26;;;;;;;20.20;13.53;;;;;;;;;;5015697;28;20280;-77
2020/12/18 04:00:53;;;;;;;21.77;12.77;;;;;;;;;;5019376;28;20276;-76
2020/12/18 04:03:19;;;;;;;22.13;13.10;;;;;;;;;;5028309;28;20853;-76
2020/12/18 04:05:45;;;;;;;20.03;13.60;;;;;;;;;;5020432;28;20272;-77
2020/12/18 04:08:11;;;;;;;22.83;14.77;;;;;;;;;;5007481;28;20437;-77
2020/12/18 04:10:37;;;;;;;21.93;14.10;;;;;;;;;;4998188;28;20265;-77
2020/12/18 04:13:03;;;;;;;18.97;13.07;;;;;;;;;;5010874;28;20335;-77
2020/12/18 04:15:29;;;;;;;21.87;14.17;;;;;;;;;;5012402;28;20265;-77
2020/12/18 04:17:55;;;;;;;21.50;13.43;;;;;;;;;;5011653;28;20316;-76
2020/12/18 04:20:21;;;;;;;27.87;14.00;;;;;;;;;;5010820;28;20273;-76
2020/12/18 04:22:47;;;;;;;21.57;12.70;;;;;;;;;;5010927;28;20280;-76
2020/12/18 04:25:13;;;;;;;19.73;12.50;;;;;;;;;;5015207;28;20272;-76
2020/12/18 04:27:39;;;;;;;24.27;13.37;;;;;;;;;;5013689;28;20281;-76
2020/12/18 04:30:06;;;;;;;19.33;12.70;;;;;;;;;;5009071;28;20276;-77
2020/12/18 04:32:32;;;;;;;20.63;13.83;;;;;;;;;;4995933;28;20262;-77
2020/12/18 04:34:59;;;;;;;19.93;13.43;;;;;;;;;;4992247;28;20276;-77
2020/12/18 04:37:25;;;;;;;21.27;13.07;;;;;;;;;;5009333;28;20322;-77
2020/12/18 04:39:51;;;;;;;18.53;12.53;;;;;;;;;;5002296;28;20296;-76
2020/12/18 04:42:19;;;;;;;19.57;12.93;;;;;;;;;;4990191;28;20677;-76
2020/12/18 04:44:45;;;;;;;19.07;12.60;;;;;;;;;;5009028;28;20269;-77
2020/12/18 04:47:14;;;;;;;17.77;12.97;;;;;;;;;;5007217;28;20304;-77
2020/12/18 04:49:42;;;;;;;19.03;12.23;;;;;;;;;;5008472;28;20289;-76
2020/12/18 04:52:12;;;;;;;18.00;11.70;;;;;;;;;;5008492;28;20269;-77
2020/12/18 04:54:42;;;;;;;20.57;12.93;;;;;;;;;;5008715;28;20341;-76
2020/12/18 04:57:10;;;;;;;19.97;12.83;;;;;;;;;;5008204;28;20268;-76
2020/12/18 04:59:37;;;;;;;22.17;14.67;;;;;;;;;;5008864;28;20279;-76
2020/12/18 05:02:03;;;;;;;20.30;13.53;;;;;;;;;;5008826;28;21022;-75
2020/12/18 05:04:29;;;;;;;21.93;13.63;;;;;;;;;;5004559;28;20692;-76
2020/12/18 05:06:56;;;;;;;23.50;14.47;;;;;;;;;;5006589;28;20272;-76
2020/12/18 05:09:25;;;;;;;25.10;14.73;;;;;;;;;;5006611;28;20355;-76
2020/12/18 05:11:52;;;;;;;23.70;14.60;;;;;;;;;;5008719;28;20991;-76
2020/12/18 05:14:18;;;;;;;20.27;14.33;;;;;;;;;;5005235;28;20328;-77
2020/12/18 05:16:47;;;;;;;22.37;15.13;;;;;;;;;;5003415;28;20898;-77
2020/12/18 05:19:13;;;;;;;24.07;14.90;;;;;;;;;;5008836;28;20273;-76
2020/12/18 05:21:40;;;;;;;24.97;15.47;;;;;;;;;;5009192;28;20776;-76
2020/12/18 05:24:06;;;;;;;28.07;17.63;;;;;;;;;;5008366;28;20283;-77
2020/12/18 05:26:32;;;;;;;25.60;16.00;;;;;;;;;;5007532;28;20847;-77
2020/12/18 05:29:03;;;;;;;25.90;16.83;;;;;;;;;;5010504;28;20416;-76
2020/12/18 05:31:29;;;;;;;28.63;16.90;;;;;;;;;;5006141;28;20274;-76
2020/12/18 05:33:55;;;;;;;33.30;16.90;;;;;;;;;;5004516;28;20257;-77
2020/12/18 05:36:25;;;;;;;27.70;17.50;;;;;;;;;;4999826;28;20282;-76
2020/12/18 05:38:52;;;;;;;29.43;17.10;;;;;;;;;;5007957;28;20289;-76
2020/12/18 05:41:22;;;;;;;34.00;18.23;;;;;;;;;;5007671;28;20339;-76
2020/12/18 05:43:48;;;;;;;29.17;18.00;;;;;;;;;;5008879;28;20269;-77
2020/12/18 05:46:18;;;;;;;28.30;16.47;;;;;;;;;;5010066;28;20265;-77
2020/12/18 05:48:45;;;;;;;27.20;16.97;;;;;;;;;;5008970;28;20299;-76
2020/12/18 05:51:25;;;;;;;27.73;15.70;;;;;;;;;;5009460;28;20261;-77
2020/12/18 05:54:06;;;;;;;26.97;14.50;;;;;;;;;;5010112;28;20264;-76
2020/12/18 05:56:33;;;;;;;26.80;15.30;;;;;;;;;;5003403;28;20296;-76
2020/12/18 05:59:05;;;;;;;28.90;16.57;;;;;;;;;;5009477;28;20280;-76
2020/12/18 06:01:32;;;;;;;33.37;18.00;;;;;;;;;;5009836;28;20933;-77
2020/12/18 06:04:02;;;;;;;29.03;16.87;;;;;;;;;;5009821;28;20281;-77
2020/12/18 06:06:29;;;;;;;32.07;17.63;;;;;;;;;;5010134;28;20913;-76
2020/12/18 06:08:56;;;;;;;30.47;18.07;;;;;;;;;;5005098;28;20432;-77
2020/12/18 06:11:24;;;;;;;28.03;16.83;;;;;;;;;;4995876;28;20276;-77
2020/12/18 06:13:51;;;;;;;28.10;17.47;;;;;;;;;;5010686;28;20372;-78
2020/12/18 06:16:20;;;;;;;28.57;16.77;;;;;;;;;;5014851;28;20273;-77
2020/12/18 06:18:50;;;;;;;24.43;16.17;;;;;;;;;;5012716;28;20371;-77
2020/12/18 06:21:18;;;;;;;30.63;16.30;;;;;;;;;;5016048;28;20316;-77
2020/12/18 06:23:45;;;;;;;27.10;18.13;;;;;;;;;;5016245;28;20268;-77
2020/12/18 06:26:12;;;;;;;25.70;16.97;;;;;;;;;;5013242;28;20280;-77
2020/12/18 06:28:38;;;;;;;27.43;17.40;;;;;;;;;;5017776;28;20289;-76
2020/12/18 06:31:24;;;;;;;24.90;16.40;;;;;;;;;;4997819;28;20772;-76
2020/12/18 06:33:54;;;;;;;27.63;16.17;;;;;;;;;;5024695;28;20287;-76
2020/12/18 06:36:40;;;;;;;22.93;13.50;;;;;;;;;;5008968;28;20277;-76
2020/12/18 06:39:22;;;;;;;22.43;14.10;;;;;;;;;;5011293;28;20332;-77
2020/12/18 06:42:08;;;;;;;24.37;15.60;;;;;;;;;;5011206;28;20276;-76
2020/12/18 06:44:38;;;;;;;22.10;12.87;;;;;;;;;;5004517;28;20323;-77
2020/12/18 06:47:23;;;;;;;20.43;12.47;;;;;;;;;;4998099;28;20364;-76
2020/12/18 06:49:57;;;;;;;20.87;12.30;;;;;;;;;;5004048;28;20285;-77
2020/12/18 06:52:38;;;;;;;19.02;11.82;;;;;;;;;;5008819;28;20335;-76
2020/12/18 06:55:05;;;;;;;21.60;12.27;;;;;;;;;;5007999;28;20040;-76
2020/12/18 06:57:31;;;;;;;24.77;12.00;;;;;;;;;;4999388;28;20277;-75
2020/12/18 07:00:16;;;;;;;22.10;11.93;;;;;;;;;;5015937;28;20273;-77
2020/12/18 07:02:42;;;;;;;22.00;11.83;;;;;;;;;;5009567;28;20264;-76
2020/12/18 07:05:28;;;;;;;20.97;11.73;;;;;;;;;;5011950;28;20919;-78
2020/12/18 07:07:57;;;;;;;24.37;12.07;;;;;;;;;;5013459;28;20272;-78
2020/12/18 07:10:30;;;;;;;23.17;12.47;;;;;;;;;;5010184;28;20269;-77
2020/12/18 07:12:58;;;;;;;26.63;12.82;;;;;;;;;;5011007;28;20300;-76
2020/12/18 07:15:29;;;;;;;23.17;12.30;;;;;;;;;;5011034;28;20105;-78
2020/12/18 07:17:56;;;;;;;22.87;12.97;;;;;;;;;;5011263;28;20774;-77
2020/12/18 07:20:25;;;;;;;23.37;12.93;;;;;;;;;;5010722;28;20775;-77
2020/12/18 07:22:51;;;;;;;28.37;15.60;;;;;;;;;;5008260;28;20284;-77
2020/12/18 07:25:17;;;;;;;20.40;12.83;;;;;;;;;;5013230;28;20944;-77
2020/12/18 07:27:43;;;;;;;23.27;12.50;;;;;;;;;;5013614;28;20273;-78
2020/12/18 07:30:10;;;;;;;25.83;14.67;;;;;;;;;;5015313;28;20277;-77
2020/12/18 07:32:37;;;;;;;22.63;13.87;;;;;;;;;;5015427;28;20279;-79
2020/12/18 07:35:07;;;;;;;25.13;13.83;;;;;;;;;;5014712;28;20294;-77
2020/12/18 07:37:37;;;;;;;23.97;13.83;;;;;;;;;;5013489;28;21226;-76
2020/12/18 07:40:07;;;;;;;26.70;13.47;;;;;;;;;;5010751;28;20269;-77
2020/12/18 07:42:33;;;;;;;24.50;14.30;;;;;;;;;;5012221;28;20284;-77
2020/12/18 07:45:06;;;;;;;28.53;14.87;;;;;;;;;;5010828;28;20355;-76
2020/12/18 07:47:41;;;;;;;26.63;14.73;;;;;;;;;;5009606;28;20337;-78
2020/12/18 07:50:08;;;;;;;25.07;15.13;;;;;;;;;;5010938;28;20030;-78
2020/12/18 07:52:35;;;;;;;25.63;13.93;;;;;;;;;;5013489;28;20288;-78
2020/12/18 07:55:01;;;;;;;25.50;15.60;;;;;;;;;;5010722;28;20321;-78
2020/12/18 07:57:28;;;;;;;27.90;14.77;;;;;;;;;;5009452;28;20269;-77
2020/12/18 08:00:10;;;;;;;25.87;14.83;;;;;;;;;;5016685;28;20634;-78
2020/12/18 08:02:36;;;;;;;22.40;13.93;;;;;;;;;;5007762;28;20787;-77
2020/12/18 08:05:03;;;;;;;22.23;13.60;;;;;;;;;;5016298;28;20279;-78
2020/12/18 08:07:30;;;;;;;26.57;14.97;;;;;;;;;;5030563;28;20300;-78
2020/12/18 08:09:57;;;;;;;24.67;13.20;;;;;;;;;;5025581;28;20292;-77
2020/12/18 08:12:23;;;;;;;21.37;13.20;;;;;;;;;;5011507;28;20022;-77
2020/12/18 08:14:49;;;;;;;24.10;14.10;;;;;;;;;;5012057;28;20762;-78
2020/12/18 08:17:22;;;;;;;26.03;14.87;;;;;;;;;;5010438;28;20030;-77
2020/12/18 08:19:52;;;;;;;24.85;13.25;;;;;;;;;;5003994;28;20117;-77
2020/12/18 08:22:20;;;;;;;20.93;13.03;;;;;;;;;;5013526;28;20034;-78
2020/12/18 08:24:47;;;;;;;23.23;14.07;;;;;;;;;;5010972;28;20040;-78
2020/12/18 08:27:22;;;;;;;21.10;13.53;;;;;;;;;;5006236;28;20419;-78
2020/12/18 08:29:49;;;;;;;20.43;12.63;;;;;;;;;;5010591;28;20041;-79
2020/12/18 08:32:21;;;;;;;21.63;13.43;;;;;;;;;;5012677;28;20500;-80
2020/12/18 08:34:51;;;;;;;19.77;12.90;;;;;;;;;;5010250;28;20040;-78
2020/12/18 08:37:23;;;;;;;17.17;10.37;;;;;;;;;;5006165;28;20061;-78
2020/12/18 08:39:49;;;;;;;20.63;12.87;;;;;;;;;;5007991;28;20119;-78
2020/12/18 08:42:16;;;;;;;22.33;12.83;;;;;;;;;;5008286;28;20041;-80
2020/12/18 08:44:43;;;;;;;21.27;11.37;;;;;;;;;;5008966;28;20084;-78
2020/12/18 08:47:20;;;;;;;19.30;11.83;;;;;;;;;;4993637;28;20054;-78
2020/12/18 08:49:50;;;;;;;17.83;12.10;;;;;;;;;;5001383;28;20037;-78
2020/12/18 08:52:28;;;;;;;17.73;11.10;;;;;;;;;;5014361;28;20044;-79
2020/12/18 08:55:01;;;;;;;20.23;11.40;;;;;;;;;;5013004;28;20520;-79
2020/12/18 08:57:29;;;;;;;16.75;9.98;;;;;;;;;;5004592;28;20030;-79
2020/12/18 08:59:56;;;;;;;19.33;12.07;;;;;;;;;;5018090;28;20025;-78
2020/12/18 09:02:23;;;;;;;18.90;10.97;;;;;;;;;;5028280;28;20021;-79
2020/12/18 09:05:07;;;;;;;18.83;12.30;;;;;;;;;;5005173;28;20064;-78
2020/12/18 09:07:37;;;;;;;19.80;11.93;;;;;;;;;;5011331;28;20057;-78
2020/12/18 09:10:03;;;;;;;20.57;11.63;;;;;;;;;;5014274;28;20021;-77
2020/12/18 09:12:29;;;;;;;18.73;11.53;;;;;;;;;;5005027;28;20030;-78
2020/12/18 09:14:55;;;;;;;19.33;12.37;;;;;;;;;;5015226;28;20535;-79
2020/12/18 09:17:21;;;;;;;19.10;12.10;;;;;;;;;;5007843;28;20421;-79
2020/12/18 09:19:49;;;;;;;20.57;12.30;;;;;;;;;;5004980;28;20028;-78
2020/12/18 09:22:17;;;;;;;18.73;11.53;;;;;;;;;;5006346;28;20088;-78
2020/12/18 09:24:43;;;;;;;20.93;11.93;;;;;;;;;;5008596;28;20126;-78
2020/12/18 09:27:14;;;;;;;19.43;12.53;;;;;;;;;;5005118;28;20025;-77
2020/12/18 09:29:40;;;;;;;18.60;11.03;;;;;;;;;;4999291;28;20029;-77
2020/12/18 09:32:07;;;;;;;23.10;13.67;;;;;;;;;;5007679;28;20037;-79
2020/12/18 09:34:33;;;;;;;20.40;11.20;;;;;;;;;;5007538;28;20034;-77
2020/12/18 09:37:10;;;;;;;18.63;11.43;;;;;;;;;;5006237;28;20087;-77
2020/12/18 09:39:36;;;;;;;17.30;11.23;;;;;;;;;;5006817;28;20083;-77
2020/12/18 09:42:02;;;;;;;20.83;12.07;;;;;;;;;;4997193;28;20554;-78
2020/12/18 09:44:28;;;;;;;18.67;10.40;;;;;;;;;;5004976;28;20123;-78
2020/12/18 09:46:54;;;;;;;16.50;10.23;;;;;;;;;;5016848;28;20038;-78
2020/12/18 09:49:21;;;;;;;15.77;10.63;;;;;;;;;;5012175;28;20128;-78
2020/12/18 09:51:47;;;;;;;17.53;12.07;;;;;;;;;;5011837;28;20030;-77
2020/12/18 09:54:15;;;;;;;15.87;10.47;;;;;;;;;;5009997;28;20119;-77
2020/12/18 09:56:41;;;;;;;18.17;12.37;;;;;;;;;;5012570;28;20081;-78
2020/12/18 09:59:07;;;;;;;17.63;11.90;;;;;;;;;;5011683;28;20032;-77
2020/12/18 10:01:33;;;;;;;16.70;11.63;;;;;;;;;;5008084;28;20138;-77
2020/12/18 10:03:59;;;;;;;15.47;10.57;;;;;;;;;;5007268;28;20033;-78
2020/12/18 10:06:26;;;;;;;16.70;11.23;;;;;;;;;;5002283;28;20045;-76
2020/12/18 10:08:52;;;;;;;16.23;10.87;;;;;;;;;;5006072;28;20042;-77
2020/12/18 10:11:18;;;;;;;15.80;10.60;;;;;;;;;;5005390;28;20059;-77
2020/12/18 10:13:44;;;;;;;16.70;10.50;;;;;;;;;;5006240;28;20057;-77
2020/12/18 10:16:11;;;;;;;16.60;10.93;;;;;;;;;;5005017;28;20038;-78
2020/12/18 10:18:37;;;;;;;15.57;10.60;;;;;;;;;;5006281;28;20124;-78
2020/12/18 10:21:03;;;;;;;17.97;11.13;;;;;;;;;;5005372;28;20121;-77
2020/12/18 10:23:32;;;;;;;18.73;11.27;;;;;;;;;;5005364;28;20029;-77
2020/12/18 10:26:00;;;;;;;15.80;10.77;;;;;;;;;;5007301;28;20029;-77
2020/12/18 10:28:26;;;;;;;13.10;8.70;;;;;;;;;;5013267;28;20050;-78
2020/12/18 10:30:54;;;;;;;13.47;9.57;;;;;;;;;;5005181;28;20026;-76
2020/12/18 10:33:20;;;;;;;13.23;10.23;;;;;;;;;;4999337;28;20405;-78
2020/12/18 10:35:47;;;;;;;14.13;10.03;;;;;;;;;;5005770;28;20033;-78
2020/12/18 10:38:14;;;;;;;13.37;9.33;;;;;;;;;;5005162;28;20028;-77
2020/12/18 10:40:41;;;;;;;13.57;9.97;;;;;;;;;;5005078;28;20592;-76
2020/12/18 10:43:11;;;;;;;13.03;9.33;;;;;;;;;;5005442;28;20033;-78
2020/12/18 10:45:37;;;;;;;14.57;10.13;;;;;;;;;;5011161;28;20029;-78
2020/12/18 10:48:03;;;;;;;15.20;9.73;;;;;;;;;;5008930;28;20030;-78
2020/12/18 10:50:29;;;;;;;14.03;9.33;;;;;;;;;;5023704;28;20141;-77
2020/12/18 10:52:56;;;;;;;16.33;9.70;;;;;;;;;;5023129;28;20041;-77
2020/12/18 10:55:22;;;;;;;12.97;9.27;;;;;;;;;;5009510;28;20038;-79
2020/12/18 10:57:49;;;;;;;11.40;8.43;;;;;;;;;;5021885;28;20116;-77
2020/12/18 11:00:15;;;;;;;12.93;8.35;;;;;;;;;;5020734;28;20052;-77
2020/12/18 11:02:41;;;;;;;11.80;7.90;;;;;;;;;;5023977;28;20025;-77
2020/12/18 11:05:09;;;;;;;10.02;7.75;;;;;;;;;;5007387;28;20401;-78
2020/12/18 11:07:35;;;;;;;10.73;8.68;;;;;;;;;;5006379;28;20029;-78
2020/12/18 11:10:01;;;;;;;9.23;7.43;;;;;;;;;;5008653;28;20025;-79
2020/12/18 11:12:29;;;;;;;9.38;7.40;;;;;;;;;;5010415;28;20158;-77
2020/12/18 11:14:55;;;;;;;10.32;8.57;;;;;;;;;;5006031;28;20113;-79
2020/12/18 11:17:21;;;;;;;11.18;8.05;;;;;;;;;;5040482;28;20116;-79
2020/12/18 11:19:49;;;;;;;13.02;8.07;;;;;;;;;;5011863;28;20562;-79
2020/12/18 11:22:16;;;;;;;9.73;7.78;;;;;;;;;;5008299;28;20117;-77
2020/12/18 11:24:44;;;;;;;8.98;7.00;;;;;;;;;;5040958;28;20037;-78
2020/12/18 11:27:11;;;;;;;9.02;7.07;;;;;;;;;;5011548;28;20104;-79
2020/12/18 11:29:37;;;;;;;8.57;7.38;;;;;;;;;;5009664;28;20501;-79
2020/12/18 11:32:03;;;;;;;10.32;7.28;;;;;;;;;;5005796;28;20023;-78
2020/12/18 11:34:29;;;;;;;9.13;7.18;;;;;;;;;;5029620;28;20037;-78
2020/12/18 11:36:57;;;;;;;8.35;6.43;;;;;;;;;;5011248;28;20093;-78
2020/12/18 11:39:23;;;;;;;10.73;6.90;;;;;;;;;;5011392;28;20117;-78
2020/12/18 11:41:49;;;;;;;9.32;7.40;;;;;;;;;;5011063;28;20033;-78
2020/12/18 11:44:15;;;;;;;9.25;6.80;;;;;;;;;;5011596;28;20059;-77
2020/12/18 11:46:41;;;;;;;10.18;7.00;;;;;;;;;;5009429;28;20025;-77
2020/12/18 11:49:07;;;;;;;8.02;5.88;;;;;;;;;;5011403;28;20477;-77
2020/12/18 11:51:33;;;;;;;10.02;7.82;;;;;;;;;;5014793;28;20056;-78
2020/12/18 11:54:00;;;;;;;10.20;6.47;;;;;;;;;;5016598;28;20124;-77
2020/12/18 11:56:26;;;;;;;7.82;6.10;;;;;;;;;;5004363;28;20018;-79
2020/12/18 11:58:52;;;;;;;10.10;6.95;;;;;;;;;;5004371;28;20515;-77
2020/12/18 12:01:22;;;;;;;10.25;6.60;;;;;;;;;;5017452;28;20030;-78
2020/12/18 12:03:49;;;;;;;7.85;5.93;;;;;;;;;;5008777;28;20034;-77
2020/12/18 12:06:15;;;;;;;9.35;5.82;;;;;;;;;;5014302;28;20030;-77
2020/12/18 12:08:41;;;;;;;8.18;5.95;;;;;;;;;;5009100;28;20041;-78
2020/12/18 12:11:08;;;;;;;8.70;5.72;;;;;;;;;;5010739;28;20026;-78
2020/12/18 12:13:34;;;;;;;8.30;4.82;;;;;;;;;;5008051;28;20025;-78
2020/12/18 12:16:01;;;;;;;7.53;4.40;;;;;;;;;;5012406;28;20037;-78
2020/12/18 12:18:27;;;;;;;10.85;6.20;;;;;;;;;;5008118;28;20028;-78
2020/12/18 12:20:53;;;;;;;8.15;5.25;;;;;;;;;;5008607;28;20037;-78
2020/12/18 12:23:19;;;;;;;9.10;5.15;;;;;;;;;;5005218;28;20030;-78
2020/12/18 12:25:45;;;;;;;7.05;4.75;;;;;;;;;;5017632;28;20100;-79
2020/12/18 12:28:11;;;;;;;7.95;5.53;;;;;;;;;;5009924;28;20036;-79
2020/12/18 12:30:37;;;;;;;8.05;5.22;;;;;;;;;;5012632;28;20084;-78
2020/12/18 12:33:03;;;;;;;7.43;5.32;;;;;;;;;;5013990;28;20018;-78
2020/12/18 12:35:30;;;;;;;7.43;4.72;;;;;;;;;;5005754;28;20029;-77
2020/12/18 12:38:00;;;;;;;7.22;4.97;;;;;;;;;;5008105;28;20021;-81
2020/12/18 12:40:26;;;;;;;9.38;5.60;;;;;;;;;;5000956;28;20049;-77
2020/12/18 12:42:52;;;;;;;8.25;5.30;;;;;;;;;;5016835;28;20485;-77
2020/12/18 12:45:18;;;;;;;9.18;5.80;;;;;;;;;;5017639;28;20030;-78
2020/12/18 12:47:44;;;;;;;6.88;5.20;;;;;;;;;;5002281;28;20046;-77
2020/12/18 12:50:10;;;;;;;7.55;6.13;;;;;;;;;;5009229;28;20034;-77
2020/12/18 12:52:36;;;;;;;7.93;5.50;;;;;;;;;;5008363;28;20022;-77
2020/12/18 12:55:02;;;;;;;8.20;5.43;;;;;;;;;;5001649;28;20033;-78
2020/12/18 12:57:28;;;;;;;7.68;5.47;;;;;;;;;;5007647;28;20057;-78
2020/12/18 12:59:54;;;;;;;8.38;5.75;;;;;;;;;;5007930;28;20504;-77
2020/12/18 13:02:21;;;;;;;9.02;6.47;;;;;;;;;;5008536;28;20927;-77
2020/12/18 13:04:47;;;;;;;9.15;6.57;;;;;;;;;;5008474;28;20449;-77
2020/12/18 13:07:13;;;;;;;7.95;5.60;;;;;;;;;;5006219;28;20033;-78
2020/12/18 13:09:39;;;;;;;8.88;5.13;;;;;;;;;;5007741;28;20057;-78
2020/12/18 13:12:07;;;;;;;7.95;5.22;;;;;;;;;;5005671;28;20030;-77
2020/12/18 13:14:33;;;;;;;8.20;5.90;;;;;;;;;;5000163;28;20026;-76
2020/12/18 13:16:59;;;;;;;8.15;5.32;;;;;;;;;;4997344;28;20038;-77
2020/12/18 13:19:25;;;;;;;7.97;5.50;;;;;;;;;;5003715;28;20053;-77
2020/12/18 13:21:51;;;;;;;8.18;5.32;;;;;;;;;;5007542;28;20516;-77
2020/12/18 13:24:18;;;;;;;9.13;6.03;;;;;;;;;;5006004;28;20717;-77
2020/12/18 13:26:44;;;;;;;10.75;6.05;;;;;;;;;;5004853;28;20128;-78
2020/12/18 13:29:11;;;;;;;9.40;5.30;;;;;;;;;;5001131;28;20022;-77
2020/12/18 13:31:37;;;;;;;8.40;4.80;;;;;;;;;;5035092;28;20049;-77
2020/12/18 13:34:03;;;;;;;8.65;5.00;;;;;;;;;;4998216;28;20019;-77
2020/12/18 13:36:29;;;;;;;6.90;4.78;;;;;;;;;;5004988;28;20117;-77
2020/12/18 13:38:56;;;;;;;8.18;4.78;;;;;;;;;;5018583;28;20549;-77
2020/12/18 13:41:22;;;;;;;8.52;4.97;;;;;;;;;;5018538;28;20038;-77
2020/12/18 13:43:49;;;;;;;8.23;4.72;;;;;;;;;;4997936;28;20049;-77
2020/12/18 13:46:15;;;;;;;6.63;4.93;;;;;;;;;;5005285;28;20493;-77
2020/12/18 13:48:41;;;;;;;9.75;5.30;;;;;;;;;;5005606;28;20034;-77
2020/12/18 13:51:08;;;;;;;7.78;5.05;;;;;;;;;;5005713;28;20026;-77
2020/12/18 13:53:34;;;;;;;7.22;5.00;;;;;;;;;;5005556;28;20029;-78
2020/12/18 13:56:00;;;;;;;7.80;5.40;;;;;;;;;;5000748;28;20027;-77
2020/12/18 13:58:26;;;;;;;6.50;3.97;;;;;;;;;;5008534;28;20034;-77
2020/12/18 14:00:53;;;;;;;7.22;4.45;;;;;;;;;;5006520;28;20022;-77
2020/12/18 14:03:19;;;;;;;10.68;4.90;;;;;;;;;;5005775;28;20030;-77
2020/12/18 14:05:46;;;;;;;6.95;4.50;;;;;;;;;;5005552;28;20037;-77
2020/12/18 14:08:12;;;;;;;8.50;4.90;;;;;;;;;;5005379;28;20041;-77
2020/12/18 14:10:41;;;;;;;7.93;5.05;;;;;;;;;;5005564;28;20413;-77
2020/12/18 14:13:08;;;;;;;8.40;4.55;;;;;;;;;;5006787;28;20108;-78
2020/12/18 14:15:34;;;;;;;7.43;4.97;;;;;;;;;;4990001;28;20030;-79
2020/12/18 14:18:00;;;;;;;6.80;4.47;;;;;;;;;;4999073;28;20669;-79
2020/12/18 14:20:26;;;;;;;8.07;4.50;;;;;;;;;;5007192;28;20121;-79
2020/12/18 14:22:52;;;;;;;7.68;4.63;;;;;;;;;;5009400;28;20045;-79
2020/12/18 14:25:18;;;;;;;8.82;5.13;;;;;;;;;;5007316;28;20037;-78